createdAt,value
2023-04-25T00:00:20.770Z,9.90
2023-04-25T00:00:54.335Z,9.90
2023-04-25T00:01:27.700Z,9.90
2023-04-25T00:02:00.704Z,9.90
2023-04-25T00:02:33.587Z,9.90
2023-04-25T00:03:07.408Z,9.90
2023-04-25T00:03:40.079Z,9.90
2023-04-25T00:04:12.673Z,9.90
2023-04-25T00:04:44.948Z,9.90
2023-04-25T00:05:18.147Z,9.90
2023-04-25T00:05:50.180Z,9.80
2023-04-25T00:06:22.043Z,9.80
2023-04-25T00:06:55.330Z,9.80
2023-04-25T00:07:27.125Z,9.80
2023-04-25T00:07:59.160Z,9.80
2023-04-25T00:08:32.015Z,9.80
2023-04-25T00:09:04.388Z,9.80
2023-04-25T00:09:36.218Z,9.80
2023-04-25T00:10:11.867Z,9.80
2023-04-25T00:10:43.747Z,9.80
2023-04-25T00:11:15.695Z,9.80
2023-04-25T00:11:47.530Z,9.80
2023-04-25T00:12:20.622Z,9.80
2023-04-25T00:12:52.571Z,9.80
2023-04-25T00:13:26.314Z,9.80
2023-04-25T00:14:00.704Z,9.80
2023-04-25T00:14:34.991Z,9.80
2023-04-25T00:15:07.971Z,9.80
2023-04-25T00:15:42.509Z,9.80
2023-04-25T00:16:15.848Z,9.80
2023-04-25T00:16:49.225Z,9.80
2023-04-25T00:17:22.848Z,9.80
2023-04-25T00:17:54.770Z,9.80
2023-04-25T00:18:29.735Z,9.80
2023-04-25T00:19:04.059Z,9.80
2023-04-25T00:19:35.920Z,9.80
2023-04-25T00:20:10.156Z,9.80
2023-04-25T00:20:47.260Z,9.80
2023-04-25T00:21:19.173Z,9.80
2023-04-25T00:21:51.181Z,9.80
2023-04-25T00:22:24.002Z,9.90
2023-04-25T00:22:56.022Z,9.90
2023-04-25T00:23:27.849Z,9.90
2023-04-25T00:24:01.064Z,9.90
2023-04-25T00:24:33.048Z,9.90
2023-04-25T00:25:06.183Z,9.80
2023-04-25T00:25:38.928Z,9.90
2023-04-25T00:26:10.717Z,9.90
2023-04-25T00:26:42.530Z,9.90
2023-04-25T00:27:14.429Z,9.90
2023-04-25T00:27:47.206Z,9.90
2023-04-25T00:28:19.038Z,9.80
2023-04-25T00:28:50.921Z,9.80
2023-04-25T00:29:23.666Z,9.80
2023-04-25T00:29:55.484Z,9.80
2023-04-25T00:30:27.307Z,9.80
2023-04-25T00:31:00.531Z,9.70
2023-04-25T00:31:32.489Z,9.80
2023-04-25T00:32:05.834Z,9.80
2023-04-25T00:32:38.802Z,9.80
2023-04-25T00:33:11.144Z,9.80
2023-04-25T00:33:43.266Z,9.70
2023-04-25T00:34:16.029Z,9.70
2023-04-25T00:34:47.855Z,9.80
2023-04-25T00:35:19.659Z,9.70
2023-04-25T00:35:52.456Z,9.70
2023-04-25T00:36:24.356Z,9.70
2023-04-25T00:36:56.265Z,9.70
2023-04-25T00:37:29.049Z,9.70
2023-04-25T00:38:01.239Z,9.70
2023-04-25T00:38:33.234Z,9.70
2023-04-25T00:39:07.355Z,9.70
2023-04-25T00:39:39.230Z,9.80
2023-04-25T00:40:11.498Z,9.80
2023-04-25T00:40:44.561Z,9.70
2023-04-25T00:41:16.475Z,9.70
2023-04-25T00:41:48.880Z,9.80
2023-04-25T00:42:21.923Z,9.80
2023-04-25T00:42:54.485Z,9.80
2023-04-25T00:43:27.611Z,9.80
2023-04-25T00:44:02.685Z,9.90
2023-04-25T00:44:35.362Z,9.90
2023-04-25T00:45:10.162Z,9.90
2023-04-25T00:45:45.565Z,9.80
2023-04-25T00:46:17.501Z,9.90
2023-04-25T00:46:49.633Z,9.90
2023-04-25T00:47:24.726Z,9.90
2023-04-25T00:47:57.299Z,9.90
2023-04-25T00:48:29.350Z,9.90
2023-04-25T00:49:02.128Z,9.90
2023-04-25T00:49:33.964Z,9.90
2023-04-25T00:50:07.197Z,9.90
2023-04-25T00:50:40.332Z,9.90
2023-04-25T00:51:17.711Z,9.90
2023-04-25T00:51:49.655Z,9.80
2023-04-25T00:52:21.808Z,9.80
2023-04-25T00:52:54.735Z,9.70
2023-04-25T00:53:28.657Z,9.80
2023-04-25T00:54:02.375Z,9.80
2023-04-25T00:54:34.251Z,9.80
2023-04-25T00:55:06.666Z,9.80
2023-04-25T00:55:39.462Z,9.80
2023-04-25T00:56:11.417Z,9.80
2023-04-25T00:56:43.555Z,9.80
2023-04-25T00:57:16.410Z,9.80
2023-04-25T00:57:48.467Z,9.80
2023-04-25T00:58:20.864Z,9.80
2023-04-25T00:58:57.367Z,9.80
2023-04-25T00:59:30.753Z,9.90
2023-04-25T01:00:03.781Z,9.80
2023-04-25T01:00:36.815Z,9.80
2023-04-25T01:01:10.257Z,9.80
2023-04-25T01:01:45.127Z,9.80
2023-04-25T01:02:17.526Z,9.80
2023-04-25T01:02:52.373Z,9.80
2023-04-25T01:03:25.293Z,9.70
2023-04-25T01:03:59.192Z,9.80
2023-04-25T01:04:32.112Z,9.80
2023-04-25T01:05:04.388Z,9.80
2023-04-25T01:05:36.314Z,9.80
2023-04-25T01:06:10.113Z,9.80
2023-04-25T01:06:42.001Z,9.80
2023-04-25T01:07:14.161Z,9.80
2023-04-25T01:07:46.243Z,9.90
2023-04-25T01:08:19.097Z,9.70
2023-04-25T01:08:51.905Z,9.90
2023-04-25T01:09:24.309Z,9.90
2023-04-25T01:09:57.082Z,9.90
2023-04-25T01:10:29.134Z,9.90
2023-04-25T01:11:00.956Z,9.80
2023-04-25T01:11:32.921Z,9.80
2023-04-25T01:12:06.151Z,9.80
2023-04-25T01:12:38.269Z,9.90
2023-04-25T01:13:10.431Z,9.90
2023-04-25T01:13:43.230Z,9.80
2023-04-25T01:14:15.051Z,9.90
2023-04-25T01:14:47.281Z,9.90
2023-04-25T01:15:20.175Z,9.90
2023-04-25T01:15:52.012Z,9.80
2023-04-25T01:16:24.863Z,9.80
2023-04-25T01:16:58.102Z,9.80
2023-04-25T01:17:30.238Z,9.80
2023-04-25T01:18:04.198Z,9.80
2023-04-25T01:18:38.144Z,9.80
2023-04-25T01:19:12.149Z,9.80
2023-04-25T01:19:44.074Z,9.80
2023-04-25T01:20:17.820Z,9.70
2023-04-25T01:20:52.292Z,9.70
2023-04-25T01:21:28.838Z,9.70
2023-04-25T01:22:00.892Z,9.70
2023-04-25T01:22:33.120Z,9.70
2023-04-25T01:23:05.945Z,9.60
2023-04-25T01:23:39.260Z,9.60
2023-04-25T01:24:11.227Z,9.60
2023-04-25T01:24:44.177Z,9.60
2023-04-25T01:25:16.230Z,9.60
2023-04-25T01:25:48.943Z,9.50
2023-04-25T01:26:23.075Z,9.50
2023-04-25T01:26:57.268Z,9.50
2023-04-25T01:27:29.951Z,9.50
2023-04-25T01:28:01.891Z,9.50
2023-04-25T01:28:35.778Z,9.50
2023-04-25T01:29:08.559Z,9.50
2023-04-25T01:29:40.609Z,9.50
2023-04-25T01:30:13.775Z,9.50
2023-04-25T01:30:46.016Z,9.50
2023-04-25T01:31:19.119Z,9.50
2023-04-25T01:31:53.958Z,9.50
2023-04-25T01:32:26.567Z,9.50
2023-04-25T01:33:00.040Z,9.40
2023-04-25T01:33:32.872Z,9.50
2023-04-25T01:34:04.709Z,9.50
2023-04-25T01:34:36.559Z,9.50
2023-04-25T01:35:11.735Z,9.50
2023-04-25T01:35:43.717Z,9.50
2023-04-25T01:36:16.198Z,9.40
2023-04-25T01:36:51.998Z,9.40
2023-04-25T01:37:23.885Z,9.40
2023-04-25T01:37:55.717Z,9.40
2023-04-25T01:38:28.686Z,9.30
2023-04-25T01:39:01.749Z,9.30
2023-04-25T01:39:33.666Z,9.30
2023-04-25T01:40:09.388Z,9.30
2023-04-25T01:40:42.302Z,9.30
2023-04-25T01:41:14.800Z,9.30
2023-04-25T01:41:48.227Z,9.30
2023-04-25T01:42:20.130Z,9.30
2023-04-25T01:42:52.426Z,9.30
2023-04-25T01:43:25.278Z,9.30
2023-04-25T01:43:57.588Z,9.30
2023-04-25T01:44:29.435Z,9.30
2023-04-25T01:45:01.454Z,9.30
2023-04-25T01:45:34.586Z,9.30
2023-04-25T01:46:06.837Z,9.30
2023-04-25T01:46:38.795Z,9.30
2023-04-25T01:47:10.733Z,9.30
2023-04-25T01:47:44.612Z,9.30
2023-04-25T01:48:17.076Z,9.30
2023-04-25T01:48:49.013Z,9.30
2023-04-25T01:49:22.130Z,9.30
2023-04-25T01:49:53.959Z,9.30
2023-04-25T01:50:26.406Z,9.30
2023-04-25T01:50:59.821Z,9.30
2023-04-25T01:51:32.558Z,9.30
2023-04-25T01:52:05.780Z,9.30
2023-04-25T01:52:38.717Z,9.30
2023-04-25T01:53:11.355Z,9.30
2023-04-25T01:53:43.966Z,9.30
2023-04-25T01:54:16.981Z,9.30
2023-04-25T01:54:49.800Z,9.30
2023-04-25T01:55:21.648Z,9.30
2023-04-25T01:55:54.441Z,9.40
2023-04-25T01:56:30.680Z,9.40
2023-04-25T01:57:02.731Z,9.30
2023-04-25T01:57:35.639Z,9.40
2023-04-25T01:58:10.181Z,9.30
2023-04-25T01:58:42.950Z,9.40
2023-04-25T01:59:14.799Z,9.40
2023-04-25T01:59:47.277Z,9.40
2023-04-25T02:00:21.673Z,9.40
2023-04-25T02:00:53.491Z,9.40
2023-04-25T02:01:25.442Z,9.50
2023-04-25T02:01:58.286Z,9.40
2023-04-25T02:02:30.539Z,9.40
2023-04-25T02:03:02.594Z,9.50
2023-04-25T02:03:36.717Z,9.40
2023-04-25T02:04:08.940Z,9.40
2023-04-25T02:04:41.211Z,9.40
2023-04-25T02:05:14.309Z,9.40
2023-04-25T02:05:46.162Z,9.40
2023-04-25T02:06:17.962Z,9.40
2023-04-25T02:06:50.730Z,9.40
2023-04-25T02:07:23.892Z,9.40
2023-04-25T02:07:55.994Z,9.40
2023-04-25T02:08:28.770Z,9.40
2023-04-25T02:09:00.609Z,9.40
2023-04-25T02:09:32.429Z,9.30
2023-04-25T02:10:05.947Z,9.40
2023-04-25T02:10:38.054Z,9.40
2023-04-25T02:11:09.864Z,9.40
2023-04-25T02:11:42.715Z,9.40
2023-04-25T02:12:14.703Z,9.40
2023-04-25T02:12:46.788Z,9.40
2023-04-25T02:13:19.651Z,9.40
2023-04-25T02:13:51.640Z,9.40
2023-04-25T02:14:23.601Z,9.40
2023-04-25T02:14:56.426Z,9.40
2023-04-25T02:15:28.236Z,9.40
2023-04-25T02:16:00.140Z,9.40
2023-04-25T02:16:33.118Z,9.40
2023-04-25T02:17:05.076Z,9.40
2023-04-25T02:17:36.948Z,9.40
2023-04-25T02:18:11.328Z,9.50
2023-04-25T02:18:43.371Z,9.40
2023-04-25T02:19:15.177Z,9.50
2023-04-25T02:19:47.999Z,9.50
2023-04-25T02:20:20.876Z,9.50
2023-04-25T02:20:52.737Z,9.50
2023-04-25T02:21:25.486Z,9.40
2023-04-25T02:21:57.952Z,9.50
2023-04-25T02:22:31.523Z,9.40
2023-04-25T02:23:07.217Z,9.40
2023-04-25T02:23:39.065Z,9.40
2023-04-25T02:24:11.019Z,9.40
2023-04-25T02:24:43.810Z,9.40
2023-04-25T02:25:16.878Z,9.40
2023-04-25T02:25:49.291Z,9.50
2023-04-25T02:26:22.238Z,9.40
2023-04-25T02:26:54.051Z,9.50
2023-04-25T02:27:25.934Z,9.40
2023-04-25T02:27:57.788Z,9.50
2023-04-25T02:28:31.233Z,9.50
2023-04-25T02:29:02.995Z,9.50
2023-04-25T02:29:34.855Z,9.50
2023-04-25T02:30:09.308Z,9.40
2023-04-25T02:30:41.159Z,9.50
2023-04-25T02:31:14.056Z,9.50
2023-04-25T02:31:46.009Z,9.50
2023-04-25T02:32:17.826Z,9.50
2023-04-25T02:32:50.634Z,9.40
2023-04-25T02:33:22.489Z,9.40
2023-04-25T02:33:54.254Z,9.40
2023-04-25T02:34:27.002Z,9.40
2023-04-25T02:35:04.556Z,9.50
2023-04-25T02:35:36.376Z,9.50
2023-04-25T02:36:09.578Z,9.50
2023-04-25T02:36:41.943Z,9.50
2023-04-25T02:37:13.761Z,9.50
2023-04-25T02:37:47.894Z,9.50
2023-04-25T02:38:19.727Z,9.50
2023-04-25T02:38:51.641Z,9.50
2023-04-25T02:39:25.995Z,9.50
2023-04-25T02:39:57.814Z,9.60
2023-04-25T02:40:29.630Z,9.40
2023-04-25T02:41:02.402Z,9.40
2023-04-25T02:41:34.241Z,9.40
2023-04-25T02:42:06.106Z,9.40
2023-04-25T02:42:38.877Z,9.40
2023-04-25T02:43:10.710Z,9.40
2023-04-25T02:43:42.492Z,9.40
2023-04-25T02:44:15.338Z,9.40
2023-04-25T02:44:47.104Z,9.40
2023-04-25T02:45:18.992Z,9.40
2023-04-25T02:45:51.791Z,9.40
2023-04-25T02:46:37.687Z,9.40
2023-04-25T02:47:10.684Z,9.40
2023-04-25T02:47:43.487Z,9.40
2023-04-25T02:48:15.315Z,9.40
2023-04-25T02:48:47.168Z,9.40
2023-04-25T02:49:19.924Z,9.40
2023-04-25T02:49:51.792Z,9.30
2023-04-25T02:50:23.786Z,9.30
2023-04-25T02:50:56.610Z,9.30
2023-04-25T02:51:28.398Z,9.30
2023-04-25T02:52:00.645Z,9.30
2023-04-25T02:52:33.560Z,9.30
2023-04-25T02:53:06.704Z,9.30
2023-04-25T02:53:38.525Z,9.40
2023-04-25T02:54:11.393Z,9.40
2023-04-25T02:54:43.252Z,9.40
2023-04-25T02:55:15.609Z,9.40
2023-04-25T02:55:48.390Z,9.40
2023-04-25T02:56:20.707Z,9.40
2023-04-25T02:56:53.477Z,9.40
2023-04-25T02:57:25.330Z,9.40
2023-04-25T02:57:57.183Z,9.30
2023-04-25T02:58:30.073Z,9.30
2023-04-25T02:59:01.950Z,9.30
2023-04-25T02:59:34.440Z,9.30
2023-04-25T03:00:08.792Z,9.30
2023-04-25T03:00:40.648Z,9.40
2023-04-25T03:01:12.544Z,9.30
2023-04-25T03:01:45.356Z,9.40
2023-04-25T03:02:17.150Z,9.40
2023-04-25T03:02:49.194Z,9.40
2023-04-25T03:03:22.997Z,9.40
2023-04-25T03:03:55.303Z,9.40
2023-04-25T03:04:27.662Z,9.40
2023-04-25T03:05:00.476Z,9.40
2023-04-25T03:05:32.319Z,9.50
2023-04-25T03:06:04.412Z,9.40
2023-04-25T03:06:37.196Z,9.40
2023-04-25T03:07:09.197Z,9.40
2023-04-25T03:07:41.132Z,9.30
2023-04-25T03:08:15.343Z,9.30
2023-04-25T03:08:47.150Z,9.30
2023-04-25T03:09:18.941Z,9.30
2023-04-25T03:09:50.753Z,9.30
2023-04-25T03:10:23.500Z,9.30
2023-04-25T03:10:56.475Z,9.30
2023-04-25T03:11:28.275Z,9.30
2023-04-25T03:12:01.129Z,9.30
2023-04-25T03:12:32.916Z,9.40
2023-04-25T03:13:04.698Z,9.40
2023-04-25T03:13:37.459Z,9.40
2023-04-25T03:14:09.289Z,9.40
2023-04-25T03:14:41.080Z,9.30
2023-04-25T03:15:13.840Z,9.30
2023-04-25T03:15:45.731Z,9.30
2023-04-25T03:16:17.691Z,9.20
2023-04-25T03:16:50.668Z,9.20
2023-04-25T03:17:22.536Z,9.10
2023-04-25T03:17:54.384Z,9.10
2023-04-25T03:18:26.355Z,9.10
2023-04-25T03:18:59.156Z,9.00
2023-04-25T03:19:31.364Z,9.00
2023-04-25T03:20:06.254Z,9.00
2023-04-25T03:20:40.381Z,9.00
2023-04-25T03:21:12.205Z,9.00
2023-04-25T03:21:44.144Z,9.00
2023-04-25T03:22:15.978Z,9.00
2023-04-25T03:22:48.740Z,8.90
2023-04-25T03:23:22.077Z,8.90
2023-04-25T03:23:53.882Z,8.90
2023-04-25T03:24:28.010Z,8.90
2023-04-25T03:24:59.774Z,8.90
2023-04-25T03:25:31.580Z,8.90
2023-04-25T03:26:04.838Z,8.90
2023-04-25T03:26:36.690Z,8.80
2023-04-25T03:27:09.768Z,8.80
2023-04-25T03:27:42.565Z,8.80
2023-04-25T03:28:14.785Z,8.80
2023-04-25T03:28:46.576Z,8.80
2023-04-25T03:29:19.348Z,8.80
2023-04-25T03:29:51.140Z,8.80
2023-04-25T03:30:22.984Z,8.80
2023-04-25T03:30:56.019Z,8.80
2023-04-25T03:31:27.845Z,8.80
2023-04-25T03:31:59.726Z,8.90
2023-04-25T03:32:32.577Z,8.80
2023-04-25T03:33:04.515Z,8.80
2023-04-25T03:33:36.410Z,8.90
2023-04-25T03:34:09.167Z,8.80
2023-04-25T03:34:41.031Z,8.80
2023-04-25T03:35:12.832Z,8.90
2023-04-25T03:35:45.579Z,8.90
2023-04-25T03:36:18.322Z,8.90
2023-04-25T03:36:50.326Z,8.80
2023-04-25T03:37:22.181Z,8.80
2023-04-25T03:37:54.934Z,8.80
2023-04-25T03:38:28.071Z,8.80
2023-04-25T03:38:59.903Z,8.70
2023-04-25T03:39:32.676Z,8.70
2023-04-25T03:40:05.446Z,8.70
2023-04-25T03:40:37.261Z,8.70
2023-04-25T03:41:10.171Z,8.70
2023-04-25T03:41:42.090Z,8.70
2023-04-25T03:42:13.893Z,8.70
2023-04-25T03:42:46.686Z,8.70
2023-04-25T03:43:18.517Z,8.70
2023-04-25T03:43:50.501Z,8.70
2023-04-25T03:44:25.076Z,8.60
2023-04-25T03:44:56.844Z,8.70
2023-04-25T03:45:28.656Z,8.70
2023-04-25T03:46:01.881Z,8.70
2023-04-25T03:46:33.773Z,8.70
2023-04-25T03:47:05.603Z,8.70
2023-04-25T03:47:38.602Z,8.70
2023-04-25T03:48:10.450Z,8.70
2023-04-25T03:48:42.266Z,8.80
2023-04-25T03:49:18.589Z,8.80
2023-04-25T03:49:52.715Z,8.80
2023-04-25T03:50:24.708Z,8.80
2023-04-25T03:50:56.602Z,8.80
2023-04-25T03:51:29.543Z,8.80
2023-04-25T03:52:01.412Z,8.80
2023-04-25T03:52:33.208Z,8.80
2023-04-25T03:53:06.017Z,8.70
2023-04-25T03:53:39.183Z,8.70
2023-04-25T03:54:11.019Z,8.70
2023-04-25T03:54:43.829Z,8.70
2023-04-25T03:55:15.939Z,8.70
2023-04-25T03:55:47.731Z,8.70
2023-04-25T03:56:21.022Z,8.60
2023-04-25T03:56:52.872Z,8.60
2023-04-25T03:57:24.871Z,8.60
2023-04-25T03:57:58.852Z,8.60
2023-04-25T03:58:30.646Z,8.60
2023-04-25T03:59:02.482Z,8.50
2023-04-25T03:59:35.285Z,8.50
2023-04-25T04:00:08.852Z,8.50
2023-04-25T04:00:41.617Z,8.60
2023-04-25T04:01:13.458Z,8.60
2023-04-25T04:01:45.255Z,8.60
2023-04-25T04:02:18.085Z,8.60
2023-04-25T04:02:50.080Z,8.60
2023-04-25T04:03:22.334Z,8.50
2023-04-25T04:03:56.022Z,8.50
2023-04-25T04:04:28.376Z,8.50
2023-04-25T04:05:00.678Z,8.50
2023-04-25T04:05:33.697Z,8.50
2023-04-25T04:06:07.412Z,8.50
2023-04-25T04:06:41.017Z,8.40
2023-04-25T04:07:12.956Z,8.50
2023-04-25T04:07:44.748Z,8.50
2023-04-25T04:08:17.522Z,8.50
2023-04-25T04:08:51.057Z,8.50
2023-04-25T04:09:22.959Z,8.40
2023-04-25T04:09:55.697Z,8.50
2023-04-25T04:10:27.521Z,8.40
2023-04-25T04:10:59.845Z,8.40
2023-04-25T04:11:33.289Z,8.40
2023-04-25T04:12:05.539Z,8.40
2023-04-25T04:12:37.402Z,8.40
2023-04-25T04:13:10.188Z,8.40
2023-04-25T04:13:42.023Z,8.50
2023-04-25T04:14:13.908Z,8.50
2023-04-25T04:14:46.659Z,8.40
2023-04-25T04:15:18.504Z,8.40
2023-04-25T04:15:50.419Z,8.40
2023-04-25T04:16:23.315Z,8.40
2023-04-25T04:16:55.206Z,8.40
2023-04-25T04:17:27.139Z,8.40
2023-04-25T04:18:03.390Z,8.40
2023-04-25T04:18:35.289Z,8.40
2023-04-25T04:19:07.254Z,8.50
2023-04-25T04:19:40.000Z,8.40
2023-04-25T04:20:12.002Z,8.50
2023-04-25T04:20:43.813Z,8.40
2023-04-25T04:21:16.855Z,8.50
2023-04-25T04:21:48.920Z,8.50
2023-04-25T04:22:20.752Z,8.50
2023-04-25T04:22:53.560Z,8.50
2023-04-25T04:23:25.447Z,8.50
2023-04-25T04:23:58.717Z,8.50
2023-04-25T04:24:31.430Z,8.40
2023-04-25T04:25:04.037Z,8.40
2023-04-25T04:25:36.429Z,8.40
2023-04-25T04:26:09.510Z,8.40
2023-04-25T04:26:41.358Z,8.40
2023-04-25T04:27:13.697Z,8.30
2023-04-25T04:27:46.974Z,8.30
2023-04-25T04:28:18.794Z,8.30
2023-04-25T04:28:51.517Z,8.30
2023-04-25T04:29:24.316Z,8.30
2023-04-25T04:29:56.976Z,8.30
2023-04-25T04:30:30.349Z,8.30
2023-04-25T04:31:03.646Z,8.30
2023-04-25T04:31:35.553Z,8.20
2023-04-25T04:32:09.583Z,8.30
2023-04-25T04:32:42.744Z,8.30
2023-04-25T04:33:15.947Z,8.30
2023-04-25T04:33:47.948Z,8.30
2023-04-25T04:34:20.871Z,8.30
2023-04-25T04:34:53.170Z,8.20
2023-04-25T04:35:25.761Z,8.30
2023-04-25T04:35:58.775Z,8.30
2023-04-25T04:36:30.651Z,8.30
2023-04-25T04:37:02.837Z,8.30
2023-04-25T04:37:35.607Z,8.30
2023-04-25T04:38:07.410Z,8.30
2023-04-25T04:38:41.807Z,8.30
2023-04-25T04:39:16.259Z,8.40
2023-04-25T04:39:48.285Z,8.40
2023-04-25T04:40:21.504Z,8.40
2023-04-25T04:40:53.434Z,8.40
2023-04-25T04:41:25.389Z,8.40
2023-04-25T04:41:58.527Z,8.40
2023-04-25T04:42:30.317Z,8.40
2023-04-25T04:43:02.100Z,8.30
2023-04-25T04:43:34.931Z,8.30
2023-04-25T04:44:08.797Z,8.30
2023-04-25T04:44:40.784Z,8.20
2023-04-25T04:45:14.215Z,8.30
2023-04-25T04:45:46.020Z,8.30
2023-04-25T04:46:19.336Z,8.30
2023-04-25T04:46:51.434Z,8.20
2023-04-25T04:47:24.672Z,8.20
2023-04-25T04:47:57.636Z,8.20
2023-04-25T04:48:29.456Z,8.20
2023-04-25T04:49:01.260Z,8.20
2023-04-25T04:49:34.157Z,8.20
2023-04-25T04:50:09.447Z,8.20
2023-04-25T04:50:41.942Z,8.20
2023-04-25T04:51:14.763Z,8.20
2023-04-25T04:51:46.731Z,8.20
2023-04-25T04:52:18.518Z,8.20
2023-04-25T04:52:51.707Z,8.20
2023-04-25T04:53:23.516Z,8.20
2023-04-25T04:53:59.166Z,8.20
2023-04-25T04:54:33.249Z,8.20
2023-04-25T04:55:06.907Z,8.20
2023-04-25T04:55:38.739Z,8.40
2023-04-25T04:56:11.535Z,8.20
2023-04-25T04:56:43.343Z,8.20
2023-04-25T04:57:15.448Z,8.20
2023-04-25T04:57:48.206Z,8.20
2023-04-25T04:58:20.030Z,8.20
2023-04-25T04:58:51.926Z,8.20
2023-04-25T04:59:24.808Z,8.20
2023-04-25T04:59:56.737Z,8.20
2023-04-25T05:00:30.222Z,8.20
2023-04-25T05:01:03.512Z,8.20
2023-04-25T05:01:36.619Z,8.20
2023-04-25T05:02:08.538Z,8.20
2023-04-25T05:02:41.395Z,8.20
2023-04-25T05:03:14.116Z,8.30
2023-04-25T05:03:47.156Z,8.30
2023-04-25T05:04:19.089Z,8.30
2023-04-25T05:04:52.643Z,8.20
2023-04-25T05:05:25.711Z,8.20
2023-04-25T05:05:57.546Z,8.20
2023-04-25T05:06:30.938Z,8.20
2023-04-25T05:07:03.019Z,8.30
2023-04-25T05:07:35.018Z,8.30
2023-04-25T05:08:07.935Z,8.30
2023-04-25T05:08:39.775Z,8.30
2023-04-25T05:09:11.792Z,8.20
2023-04-25T05:09:46.065Z,8.20
2023-04-25T05:10:18.525Z,8.10
2023-04-25T05:10:50.495Z,8.10
2023-04-25T05:11:24.081Z,8.20
2023-04-25T05:11:55.966Z,8.20
2023-04-25T05:12:28.716Z,8.20
2023-04-25T05:13:00.799Z,8.20
2023-04-25T05:13:32.639Z,8.30
2023-04-25T05:14:05.424Z,8.30
2023-04-25T05:14:37.260Z,8.30
2023-04-25T05:15:09.678Z,8.40
2023-04-25T05:15:42.448Z,8.40
2023-04-25T05:16:14.845Z,8.50
2023-04-25T05:16:46.705Z,8.50
2023-04-25T05:17:19.470Z,8.40
2023-04-25T05:17:51.311Z,8.40
2023-04-25T05:18:23.881Z,8.40
2023-04-25T05:18:56.635Z,8.40
2023-04-25T05:19:28.485Z,8.40
2023-04-25T05:20:00.409Z,8.40
2023-04-25T05:20:33.280Z,8.40
2023-04-25T05:21:05.476Z,8.40
2023-04-25T05:21:37.365Z,8.40
2023-04-25T05:22:10.093Z,8.40
2023-04-25T05:22:42.784Z,8.40
2023-04-25T05:23:14.747Z,8.40
2023-04-25T05:23:47.483Z,8.50
2023-04-25T05:24:19.293Z,8.50
2023-04-25T05:24:54.503Z,8.50
2023-04-25T05:25:28.955Z,8.50
2023-04-25T05:26:01.020Z,8.50
2023-04-25T05:26:32.822Z,8.50
2023-04-25T05:27:06.534Z,8.40
2023-04-25T05:27:38.399Z,8.40
2023-04-25T05:28:11.198Z,8.40
2023-04-25T05:28:43.137Z,8.40
2023-04-25T05:29:16.052Z,8.40
2023-04-25T05:29:47.857Z,8.40
2023-04-25T05:30:19.695Z,8.40
2023-04-25T05:30:53.204Z,8.50
2023-04-25T05:31:25.080Z,8.40
2023-04-25T05:31:56.906Z,8.40
2023-04-25T05:32:29.829Z,8.40
2023-04-25T05:33:02.486Z,8.40
2023-04-25T05:33:34.331Z,8.40
2023-04-25T05:34:07.618Z,8.40
2023-04-25T05:34:40.450Z,8.40
2023-04-25T05:35:12.294Z,8.40
2023-04-25T05:35:45.110Z,8.40
2023-04-25T05:36:16.921Z,8.30
2023-04-25T05:36:49.527Z,8.30
2023-04-25T05:37:22.655Z,8.30
2023-04-25T05:37:54.477Z,8.30
2023-04-25T05:38:26.865Z,8.30
2023-04-25T05:38:59.631Z,8.30
2023-04-25T05:39:31.438Z,8.30
2023-04-25T05:40:07.665Z,8.40
2023-04-25T05:40:40.600Z,8.40
2023-04-25T05:41:12.404Z,8.40
2023-04-25T05:41:44.464Z,8.40
2023-04-25T05:42:17.283Z,8.40
2023-04-25T05:42:49.129Z,8.40
2023-04-25T05:43:20.950Z,8.40
2023-04-25T05:43:56.236Z,8.40
2023-04-25T05:44:29.623Z,8.40
2023-04-25T05:45:01.594Z,8.40
2023-04-25T05:45:34.437Z,8.40
2023-04-25T05:46:06.791Z,8.40
2023-04-25T05:46:38.691Z,8.40
2023-04-25T05:47:11.785Z,8.40
2023-04-25T05:47:43.626Z,8.40
2023-04-25T05:48:15.627Z,8.40
2023-04-25T05:48:48.770Z,8.40
2023-04-25T05:49:20.646Z,8.40
2023-04-25T05:49:52.469Z,8.40
2023-04-25T05:50:25.361Z,8.40
2023-04-25T05:50:57.213Z,8.40
2023-04-25T05:51:29.032Z,8.40
2023-04-25T05:52:01.793Z,8.40
2023-04-25T05:52:33.582Z,8.30
2023-04-25T05:53:06.728Z,8.30
2023-04-25T05:53:39.496Z,8.30
2023-04-25T05:54:11.696Z,8.40
2023-04-25T05:54:43.503Z,8.40
2023-04-25T05:55:17.835Z,8.40
2023-04-25T05:55:49.620Z,8.40
2023-04-25T05:56:21.468Z,8.40
2023-04-25T05:56:54.266Z,8.40
2023-04-25T05:57:28.015Z,8.40
2023-04-25T05:57:59.887Z,8.40
2023-04-25T05:58:32.642Z,8.40
2023-04-25T05:59:04.477Z,8.40
2023-04-25T05:59:36.713Z,8.40
2023-04-25T06:00:10.628Z,8.40
2023-04-25T06:00:42.497Z,8.40
2023-04-25T06:01:14.966Z,8.40
2023-04-25T06:01:47.974Z,8.40
2023-04-25T06:02:20.213Z,8.40
2023-04-25T06:02:52.262Z,8.40
2023-04-25T06:03:25.389Z,8.40
2023-04-25T06:03:57.837Z,8.40
2023-04-25T06:04:30.296Z,8.40
2023-04-25T06:05:04.564Z,8.20
2023-04-25T06:05:36.591Z,8.20
2023-04-25T06:06:09.358Z,8.20
2023-04-25T06:06:41.139Z,8.20
2023-04-25T06:07:12.956Z,8.10
2023-04-25T06:07:45.712Z,8.10
2023-04-25T06:08:17.519Z,8.00
2023-04-25T06:08:50.370Z,8.00
2023-04-25T06:09:22.237Z,7.90
2023-04-25T06:09:54.347Z,7.80
2023-04-25T06:10:28.682Z,7.70
2023-04-25T06:11:00.478Z,7.80
2023-04-25T06:11:33.274Z,7.70
2023-04-25T06:12:05.884Z,7.60
2023-04-25T06:12:38.068Z,7.60
2023-04-25T06:13:10.845Z,7.60
2023-04-25T06:13:42.635Z,7.60
2023-04-25T06:14:15.420Z,7.60
2023-04-25T06:14:47.448Z,7.50
2023-04-25T06:15:55.198Z,7.50
2023-04-25T06:16:27.163Z,7.40
2023-04-25T06:16:59.209Z,7.40
2023-04-25T06:17:32.032Z,7.40
2023-04-25T06:18:04.393Z,7.30
2023-04-25T06:18:36.294Z,7.30
2023-04-25T06:19:09.069Z,7.20
2023-04-25T06:19:41.594Z,7.20
2023-04-25T06:20:13.593Z,7.20
2023-04-25T06:20:46.354Z,7.20
2023-04-25T06:21:18.194Z,7.20
2023-04-25T06:21:50.358Z,7.10
2023-04-25T06:22:23.126Z,7.10
2023-04-25T06:22:54.998Z,7.10
2023-04-25T06:23:26.770Z,7.10
2023-04-25T06:23:59.515Z,7.10
2023-04-25T06:24:31.395Z,7.10
2023-04-25T06:25:05.199Z,7.10
2023-04-25T06:25:39.318Z,7.10
2023-04-25T06:26:11.098Z,7.20
2023-04-25T06:26:43.010Z,7.10
2023-04-25T06:27:17.121Z,7.10
2023-04-25T06:27:49.028Z,7.10
2023-04-25T06:28:22.901Z,7.10
2023-04-25T06:28:55.677Z,7.10
2023-04-25T06:29:27.624Z,7.10
2023-04-25T06:29:59.505Z,7.10
2023-04-25T06:30:32.427Z,7.10
2023-04-25T06:31:04.312Z,7.10
2023-04-25T06:31:36.399Z,7.20
2023-04-25T06:32:09.210Z,7.20
2023-04-25T06:32:41.084Z,7.20
2023-04-25T06:33:12.956Z,7.30
2023-04-25T06:33:45.769Z,7.30
2023-04-25T06:34:18.240Z,7.30
2023-04-25T06:34:50.238Z,7.30
2023-04-25T06:35:23.039Z,7.40
2023-04-25T06:35:54.856Z,7.50
2023-04-25T06:36:26.985Z,7.50
2023-04-25T06:36:59.770Z,7.50
2023-04-25T06:37:31.627Z,7.60
2023-04-25T06:38:03.665Z,7.60
2023-04-25T06:38:36.434Z,7.60
2023-04-25T06:39:09.903Z,7.60
2023-04-25T06:39:41.704Z,7.70
2023-04-25T06:40:14.687Z,7.70
2023-04-25T06:40:48.142Z,7.70
2023-04-25T06:41:20.907Z,7.80
2023-04-25T06:41:52.721Z,7.80
2023-04-25T06:42:24.523Z,7.70
2023-04-25T06:42:57.286Z,7.70
2023-04-25T06:43:29.128Z,7.60
2023-04-25T06:44:00.930Z,7.60
2023-04-25T06:44:33.651Z,7.60
2023-04-25T06:45:06.268Z,7.60
2023-04-25T06:45:39.036Z,7.60
2023-04-25T06:46:10.959Z,7.60
2023-04-25T06:46:43.762Z,7.60
2023-04-25T06:47:15.670Z,7.60
2023-04-25T06:47:47.462Z,7.50
2023-04-25T06:48:20.262Z,7.50
2023-04-25T06:48:52.507Z,7.50
2023-04-25T06:49:24.533Z,7.50
2023-04-25T06:49:57.359Z,7.50
2023-04-25T06:50:29.146Z,7.40
2023-04-25T06:51:01.035Z,7.30
2023-04-25T06:51:33.926Z,7.30
2023-04-25T06:52:05.853Z,7.30
2023-04-25T06:52:38.726Z,7.30
2023-04-25T06:53:12.379Z,7.30
2023-04-25T06:53:44.236Z,7.20
2023-04-25T06:54:17.175Z,7.30
2023-04-25T06:54:48.986Z,7.40
2023-04-25T06:55:21.796Z,7.40
2023-04-25T06:55:54.936Z,7.40
2023-04-25T06:56:28.874Z,7.50
2023-04-25T06:57:01.792Z,7.50
2023-04-25T06:57:33.638Z,7.50
2023-04-25T06:58:06.647Z,7.60
2023-04-25T06:58:38.570Z,7.60
2023-04-25T06:59:10.444Z,7.70
2023-04-25T06:59:46.225Z,7.60
2023-04-25T07:00:19.019Z,7.60
2023-04-25T07:00:52.008Z,7.70
2023-04-25T07:01:23.929Z,7.70
2023-04-25T07:01:56.761Z,7.70
2023-04-25T07:02:28.605Z,7.80
2023-04-25T07:03:00.629Z,7.80
2023-04-25T07:03:34.043Z,7.90
2023-04-25T07:04:06.253Z,7.90
2023-04-25T07:04:39.841Z,8.00
2023-04-25T07:05:11.761Z,8.00
2023-04-25T07:05:44.613Z,8.00
2023-04-25T07:06:16.420Z,8.10
2023-04-25T07:06:49.177Z,8.10
2023-04-25T07:07:21.923Z,8.20
2023-04-25T07:07:53.757Z,8.20
2023-04-25T07:08:25.769Z,8.20
2023-04-25T07:08:58.605Z,8.30
2023-04-25T07:09:30.843Z,8.30
2023-04-25T07:10:03.704Z,8.30
2023-04-25T07:10:36.034Z,8.40
2023-04-25T07:11:10.133Z,8.40
2023-04-25T07:11:42.133Z,8.40
2023-04-25T07:12:14.909Z,8.40
2023-04-25T07:12:46.706Z,8.50
2023-04-25T07:13:19.452Z,8.50
2023-04-25T07:13:51.249Z,8.50
2023-04-25T07:14:23.052Z,8.60
2023-04-25T07:14:55.813Z,8.60